sensor_id;sensor_type;location;lat;lon;timestamp;P1;durP1;ratioP1;P2;durP2;ratioP2
568;SDS011;269;48.884;9.192;2023-02-28T00:00:30;2.95;;;2.75;;
568;SDS011;269;48.884;9.192;2023-02-28T00:02:57;4.35;;;2.88;;
568;SDS011;269;48.884;9.192;2023-02-28T00:05:25;3.45;;;2.95;;
568;SDS011;269;48.884;9.192;2023-02-28T00:07:53;3.10;;;2.70;;
568;SDS011;269;48.884;9.192;2023-02-28T00:10:21;3.45;;;3.08;;
568;SDS011;269;48.884;9.192;2023-02-28T00:12:52;4.65;;;3.40;;
568;SDS011;269;48.884;9.192;2023-02-28T00:15:22;3.50;;;3.20;;
568;SDS011;269;48.884;9.192;2023-02-28T00:17:50;3.90;;;3.08;;
568;SDS011;269;48.884;9.192;2023-02-28T00:20:17;3.25;;;2.95;;
568;SDS011;269;48.884;9.192;2023-02-28T00:22:46;4.13;;;3.15;;
568;SDS011;269;48.884;9.192;2023-02-28T00:25:15;3.75;;;3.00;;
568;SDS011;269;48.884;9.192;2023-02-28T00:27:43;3.53;;;3.22;;
568;SDS011;269;48.884;9.192;2023-02-28T00:30:13;3.67;;;3.38;;
568;SDS011;269;48.884;9.192;2023-02-28T00:32:41;4.03;;;3.72;;
568;SDS011;269;48.884;9.192;2023-02-28T00:35:09;3.72;;;3.40;;
568;SDS011;269;48.884;9.192;2023-02-28T00:37:37;3.60;;;3.30;;
568;SDS011;269;48.884;9.192;2023-02-28T00:40:05;3.78;;;3.47;;
568;SDS011;269;48.884;9.192;2023-02-28T00:42:34;4.18;;;3.78;;
568;SDS011;269;48.884;9.192;2023-02-28T00:45:02;5.53;;;3.67;;
568;SDS011;269;48.884;9.192;2023-02-28T00:47:32;3.95;;;3.50;;
568;SDS011;269;48.884;9.192;2023-02-28T00:49:59;4.90;;;4.10;;
568;SDS011;269;48.884;9.192;2023-02-28T00:52:27;5.13;;;3.72;;
568;SDS011;269;48.884;9.192;2023-02-28T00:54:53;3.92;;;3.53;;
568;SDS011;269;48.884;9.192;2023-02-28T00:57:21;4.10;;;3.50;;
568;SDS011;269;48.884;9.192;2023-02-28T00:59:48;5.53;;;4.00;;
568;SDS011;269;48.884;9.192;2023-02-28T01:02:15;3.80;;;3.40;;
568;SDS011;269;48.884;9.192;2023-02-28T01:04:44;4.85;;;4.35;;
568;SDS011;269;48.884;9.192;2023-02-28T01:07:12;4.15;;;3.75;;
568;SDS011;269;48.884;9.192;2023-02-28T01:09:39;3.90;;;3.60;;
568;SDS011;269;48.884;9.192;2023-02-28T01:12:06;4.13;;;3.72;;
568;SDS011;269;48.884;9.192;2023-02-28T01:14:34;4.70;;;3.67;;
568;SDS011;269;48.884;9.192;2023-02-28T01:17:02;4.07;;;3.67;;
568;SDS011;269;48.884;9.192;2023-02-28T01:19:29;4.07;;;3.78;;
568;SDS011;269;48.884;9.192;2023-02-28T01:21:58;4.00;;;3.60;;
568;SDS011;269;48.884;9.192;2023-02-28T01:24:27;4.47;;;3.78;;
568;SDS011;269;48.884;9.192;2023-02-28T01:26:54;5.32;;;4.20;;
568;SDS011;269;48.884;9.192;2023-02-28T01:29:21;3.60;;;3.30;;
568;SDS011;269;48.884;9.192;2023-02-28T01:31:48;4.38;;;3.97;;
568;SDS011;269;48.884;9.192;2023-02-28T01:34:15;4.57;;;4.18;;
568;SDS011;269;48.884;9.192;2023-02-28T01:36:44;5.03;;;4.53;;
568;SDS011;269;48.884;9.192;2023-02-28T01:39:13;4.47;;;4.05;;
568;SDS011;269;48.884;9.192;2023-02-28T01:41:40;4.55;;;4.15;;
568;SDS011;269;48.884;9.192;2023-02-28T01:44:53;4.70;;;4.30;;
568;SDS011;269;48.884;9.192;2023-02-28T01:47:21;5.75;;;4.00;;
568;SDS011;269;48.884;9.192;2023-02-28T01:49:50;4.20;;;3.90;;
568;SDS011;269;48.884;9.192;2023-02-28T01:52:18;4.25;;;3.85;;
568;SDS011;269;48.884;9.192;2023-02-28T01:54:47;5.18;;;4.22;;
568;SDS011;269;48.884;9.192;2023-02-28T01:57:20;4.30;;;4.00;;
568;SDS011;269;48.884;9.192;2023-02-28T01:59:50;5.00;;;4.25;;
568;SDS011;269;48.884;9.192;2023-02-28T02:02:21;4.15;;;3.80;;
568;SDS011;269;48.884;9.192;2023-02-28T02:04:50;4.50;;;4.10;;
568;SDS011;269;48.884;9.192;2023-02-28T02:07:21;5.55;;;4.15;;
568;SDS011;269;48.884;9.192;2023-02-28T02:09:56;4.00;;;3.65;;
568;SDS011;269;48.884;9.192;2023-02-28T02:12:27;3.95;;;3.65;;
568;SDS011;269;48.884;9.192;2023-02-28T02:15:05;5.65;;;4.43;;
568;SDS011;269;48.884;9.192;2023-02-28T02:17:40;4.45;;;4.05;;
568;SDS011;269;48.884;9.192;2023-02-28T02:20:27;5.10;;;4.60;;
568;SDS011;269;48.884;9.192;2023-02-28T02:26:06;4.45;;;4.10;;
568;SDS011;269;48.884;9.192;2023-02-28T02:29:22;4.40;;;4.00;;
568;SDS011;269;48.884;9.192;2023-02-28T02:32:23;4.88;;;4.47;;
568;SDS011;269;48.884;9.192;2023-02-28T02:35:07;4.85;;;4.15;;
568;SDS011;269;48.884;9.192;2023-02-28T02:37:42;4.00;;;3.70;;
568;SDS011;269;48.884;9.192;2023-02-28T02:40:16;4.78;;;4.38;;
568;SDS011;269;48.884;9.192;2023-02-28T02:42:48;4.72;;;4.32;;
568;SDS011;269;48.884;9.192;2023-02-28T02:45:22;5.05;;;4.53;;
568;SDS011;269;48.884;9.192;2023-02-28T02:47:52;4.90;;;4.28;;
568;SDS011;269;48.884;9.192;2023-02-28T02:50:24;4.85;;;4.45;;
568;SDS011;269;48.884;9.192;2023-02-28T02:52:55;4.60;;;4.20;;
568;SDS011;269;48.884;9.192;2023-02-28T02:55:25;5.28;;;4.72;;
568;SDS011;269;48.884;9.192;2023-02-28T02:57:53;4.90;;;4.47;;
568;SDS011;269;48.884;9.192;2023-02-28T03:00:25;4.82;;;4.40;;
568;SDS011;269;48.884;9.192;2023-02-28T03:02:57;4.75;;;4.35;;
568;SDS011;269;48.884;9.192;2023-02-28T03:05:27;5.88;;;5.28;;
568;SDS011;269;48.884;9.192;2023-02-28T03:07:58;4.80;;;4.35;;
568;SDS011;269;48.884;9.192;2023-02-28T03:10:28;5.43;;;5.03;;
568;SDS011;269;48.884;9.192;2023-02-28T03:13:00;5.20;;;4.70;;
568;SDS011;269;48.884;9.192;2023-02-28T03:16:00;5.20;;;4.70;;
568;SDS011;269;48.884;9.192;2023-02-28T03:18:39;4.55;;;4.15;;
568;SDS011;269;48.884;9.192;2023-02-28T03:21:17;4.88;;;4.47;;
568;SDS011;269;48.884;9.192;2023-02-28T03:23:53;5.22;;;4.75;;
568;SDS011;269;48.884;9.192;2023-02-28T03:26:28;6.18;;;5.20;;
568;SDS011;269;48.884;9.192;2023-02-28T03:28:58;4.80;;;4.40;;
568;SDS011;269;48.884;9.192;2023-02-28T03:31:30;5.40;;;4.85;;
568;SDS011;269;48.884;9.192;2023-02-28T03:34:03;5.80;;;5.15;;
568;SDS011;269;48.884;9.192;2023-02-28T03:36:36;4.93;;;4.53;;
568;SDS011;269;48.884;9.192;2023-02-28T03:39:09;5.75;;;5.25;;
568;SDS011;269;48.884;9.192;2023-02-28T03:41:42;5.68;;;5.18;;
568;SDS011;269;48.884;9.192;2023-02-28T03:44:16;5.78;;;4.85;;
568;SDS011;269;48.884;9.192;2023-02-28T03:46:46;6.20;;;5.05;;
568;SDS011;269;48.884;9.192;2023-02-28T03:49:20;5.28;;;4.78;;
568;SDS011;269;48.884;9.192;2023-02-28T03:51:52;6.63;;;5.93;;
568;SDS011;269;48.884;9.192;2023-02-28T03:54:21;5.55;;;5.05;;
568;SDS011;269;48.884;9.192;2023-02-28T03:56:51;4.75;;;4.35;;
568;SDS011;269;48.884;9.192;2023-02-28T03:59:25;7.95;;;5.50;;
568;SDS011;269;48.884;9.192;2023-02-28T04:01:55;5.45;;;4.95;;
568;SDS011;269;48.884;9.192;2023-02-28T04:04:24;5.75;;;5.25;;
568;SDS011;269;48.884;9.192;2023-02-28T04:06:53;5.68;;;5.18;;
568;SDS011;269;48.884;9.192;2023-02-28T04:09:28;5.05;;;4.60;;
568;SDS011;269;48.884;9.192;2023-02-28T04:11:54;6.97;;;5.35;;
568;SDS011;269;48.884;9.192;2023-02-28T04:14:22;5.35;;;4.85;;
568;SDS011;269;48.884;9.192;2023-02-28T04:16:49;5.90;;;4.88;;
568;SDS011;269;48.884;9.192;2023-02-28T04:19:17;6.07;;;5.38;;
568;SDS011;269;48.884;9.192;2023-02-28T04:21:45;5.53;;;5.05;;
568;SDS011;269;48.884;9.192;2023-02-28T04:24:16;5.20;;;4.70;;
568;SDS011;269;48.884;9.192;2023-02-28T04:26:45;5.28;;;4.78;;
568;SDS011;269;48.884;9.192;2023-02-28T04:29:17;5.65;;;5.15;;
568;SDS011;269;48.884;9.192;2023-02-28T04:31:46;5.80;;;5.30;;
568;SDS011;269;48.884;9.192;2023-02-28T04:34:13;6.47;;;5.57;;
568;SDS011;269;48.884;9.192;2023-02-28T04:36:39;5.82;;;5.32;;
568;SDS011;269;48.884;9.192;2023-02-28T04:39:07;5.85;;;4.95;;
568;SDS011;269;48.884;9.192;2023-02-28T04:41:36;5.63;;;5.00;;
568;SDS011;269;48.884;9.192;2023-02-28T04:44:03;6.00;;;5.40;;
568;SDS011;269;48.884;9.192;2023-02-28T04:46:31;6.13;;;5.53;;
568;SDS011;269;48.884;9.192;2023-02-28T04:48:58;5.88;;;5.15;;
568;SDS011;269;48.884;9.192;2023-02-28T04:51:25;5.93;;;4.85;;
568;SDS011;269;48.884;9.192;2023-02-28T04:53:52;6.32;;;5.72;;
568;SDS011;269;48.884;9.192;2023-02-28T04:56:19;6.20;;;5.57;;
568;SDS011;269;48.884;9.192;2023-02-28T04:58:48;6.28;;;5.78;;
568;SDS011;269;48.884;9.192;2023-02-28T05:01:17;5.82;;;5.20;;
568;SDS011;269;48.884;9.192;2023-02-28T05:03:49;6.30;;;5.70;;
568;SDS011;269;48.884;9.192;2023-02-28T05:06:18;6.05;;;5.53;;
568;SDS011;269;48.884;9.192;2023-02-28T05:08:46;6.78;;;5.93;;
568;SDS011;269;48.884;9.192;2023-02-28T05:11:15;6.07;;;5.57;;
568;SDS011;269;48.884;9.192;2023-02-28T05:13:44;6.40;;;5.80;;
568;SDS011;269;48.884;9.192;2023-02-28T05:16:13;5.82;;;5.32;;
568;SDS011;269;48.884;9.192;2023-02-28T05:18:40;5.95;;;5.22;;
568;SDS011;269;48.884;9.192;2023-02-28T05:21:20;6.60;;;5.68;;
568;SDS011;269;48.884;9.192;2023-02-28T05:23:50;5.72;;;5.22;;
568;SDS011;269;48.884;9.192;2023-02-28T05:26:17;6.60;;;6.00;;
568;SDS011;269;48.884;9.192;2023-02-28T05:28:45;6.13;;;5.53;;
568;SDS011;269;48.884;9.192;2023-02-28T05:31:13;6.50;;;5.90;;
568;SDS011;269;48.884;9.192;2023-02-28T05:33:41;5.70;;;5.20;;
568;SDS011;269;48.884;9.192;2023-02-28T05:36:08;6.68;;;5.65;;
568;SDS011;269;48.884;9.192;2023-02-28T05:38:35;6.38;;;5.57;;
568;SDS011;269;48.884;9.192;2023-02-28T05:41:04;7.70;;;7.00;;
568;SDS011;269;48.884;9.192;2023-02-28T05:43:33;7.07;;;6.47;;
568;SDS011;269;48.884;9.192;2023-02-28T05:46:02;6.60;;;5.85;;
568;SDS011;269;48.884;9.192;2023-02-28T05:48:32;8.50;;;7.90;;
568;SDS011;269;48.884;9.192;2023-02-28T05:50:59;11.90;;;10.85;;
568;SDS011;269;48.884;9.192;2023-02-28T05:53:27;8.32;;;7.55;;
568;SDS011;269;48.884;9.192;2023-02-28T05:55:55;7.32;;;6.72;;
568;SDS011;269;48.884;9.192;2023-02-28T05:58:22;7.18;;;6.53;;
568;SDS011;269;48.884;9.192;2023-02-28T06:00:50;7.47;;;6.72;;
568;SDS011;269;48.884;9.192;2023-02-28T06:03:18;6.13;;;5.57;;
568;SDS011;269;48.884;9.192;2023-02-28T06:05:46;6.90;;;6.20;;
568;SDS011;269;48.884;9.192;2023-02-28T06:08:13;8.45;;;6.93;;
568;SDS011;269;48.884;9.192;2023-02-28T06:10:40;7.53;;;6.68;;
568;SDS011;269;48.884;9.192;2023-02-28T06:13:07;8.65;;;6.75;;
568;SDS011;269;48.884;9.192;2023-02-28T06:15:34;7.10;;;6.30;;
568;SDS011;269;48.884;9.192;2023-02-28T06:18:02;6.95;;;6.25;;
568;SDS011;269;48.884;9.192;2023-02-28T06:20:29;8.18;;;6.28;;
568;SDS011;269;48.884;9.192;2023-02-28T06:22:57;6.47;;;5.88;;
568;SDS011;269;48.884;9.192;2023-02-28T06:25:26;6.57;;;5.68;;
568;SDS011;269;48.884;9.192;2023-02-28T06:27:53;6.97;;;5.90;;
568;SDS011;269;48.884;9.192;2023-02-28T06:30:21;7.50;;;6.82;;
568;SDS011;269;48.884;9.192;2023-02-28T06:32:50;6.95;;;6.25;;
568;SDS011;269;48.884;9.192;2023-02-28T06:35:18;6.28;;;5.38;;
568;SDS011;269;48.884;9.192;2023-02-28T06:37:45;6.70;;;6.10;;
568;SDS011;269;48.884;9.192;2023-02-28T06:40:14;6.65;;;6.05;;
568;SDS011;269;48.884;9.192;2023-02-28T06:42:41;7.40;;;5.50;;
568;SDS011;269;48.884;9.192;2023-02-28T06:45:08;7.38;;;6.50;;
568;SDS011;269;48.884;9.192;2023-02-28T06:47:36;6.85;;;6.05;;
568;SDS011;269;48.884;9.192;2023-02-28T06:50:05;6.30;;;5.70;;
568;SDS011;269;48.884;9.192;2023-02-28T06:52:34;11.20;;;7.95;;
568;SDS011;269;48.884;9.192;2023-02-28T06:55:03;8.15;;;6.82;;
568;SDS011;269;48.884;9.192;2023-02-28T06:57:32;8.00;;;7.25;;
568;SDS011;269;48.884;9.192;2023-02-28T07:00:02;8.13;;;7.35;;
568;SDS011;269;48.884;9.192;2023-02-28T07:02:33;8.27;;;7.30;;
568;SDS011;269;48.884;9.192;2023-02-28T07:05:00;7.35;;;6.65;;
568;SDS011;269;48.884;9.192;2023-02-28T07:07:27;7.88;;;6.60;;
568;SDS011;269;48.884;9.192;2023-02-28T07:09:54;7.03;;;6.13;;
568;SDS011;269;48.884;9.192;2023-02-28T07:12:21;7.90;;;7.10;;
568;SDS011;269;48.884;9.192;2023-02-28T07:14:50;7.55;;;6.30;;
568;SDS011;269;48.884;9.192;2023-02-28T07:17:17;7.97;;;7.25;;
568;SDS011;269;48.884;9.192;2023-02-28T07:19:44;7.25;;;6.60;;
568;SDS011;269;48.884;9.192;2023-02-28T07:22:11;7.25;;;6.55;;
568;SDS011;269;48.884;9.192;2023-02-28T07:24:38;8.18;;;7.00;;
568;SDS011;269;48.884;9.192;2023-02-28T07:27:05;7.43;;;6.72;;
568;SDS011;269;48.884;9.192;2023-02-28T07:29:32;8.13;;;6.70;;
568;SDS011;269;48.884;9.192;2023-02-28T07:32:00;8.15;;;7.32;;
568;SDS011;269;48.884;9.192;2023-02-28T07:34:27;8.10;;;7.30;;
568;SDS011;269;48.884;9.192;2023-02-28T07:36:54;8.43;;;7.25;;
568;SDS011;269;48.884;9.192;2023-02-28T07:39:22;8.55;;;7.75;;
568;SDS011;269;48.884;9.192;2023-02-28T07:41:49;7.63;;;6.75;;
568;SDS011;269;48.884;9.192;2023-02-28T07:44:16;7.82;;;7.10;;
568;SDS011;269;48.884;9.192;2023-02-28T07:46:43;7.95;;;7.03;;
568;SDS011;269;48.884;9.192;2023-02-28T07:49:11;8.40;;;6.43;;
568;SDS011;269;48.884;9.192;2023-02-28T07:51:38;7.35;;;6.72;;
568;SDS011;269;48.884;9.192;2023-02-28T07:54:05;8.10;;;7.30;;
568;SDS011;269;48.884;9.192;2023-02-28T07:56:33;7.47;;;6.43;;
568;SDS011;269;48.884;9.192;2023-02-28T07:59:00;9.10;;;7.97;;
568;SDS011;269;48.884;9.192;2023-02-28T08:01:28;8.20;;;7.40;;
568;SDS011;269;48.884;9.192;2023-02-28T08:03:55;7.57;;;6.78;;
568;SDS011;269;48.884;9.192;2023-02-28T08:06:24;8.00;;;7.32;;
568;SDS011;269;48.884;9.192;2023-02-28T08:08:52;7.53;;;6.88;;
568;SDS011;269;48.884;9.192;2023-02-28T08:11:21;8.10;;;7.30;;
568;SDS011;269;48.884;9.192;2023-02-28T08:13:48;8.10;;;7.28;;
568;SDS011;269;48.884;9.192;2023-02-28T08:16:15;10.63;;;8.93;;
568;SDS011;269;48.884;9.192;2023-02-28T08:18:47;8.60;;;7.70;;
568;SDS011;269;48.884;9.192;2023-02-28T08:21:15;8.13;;;7.32;;
568;SDS011;269;48.884;9.192;2023-02-28T08:23:43;8.25;;;6.85;;
568;SDS011;269;48.884;9.192;2023-02-28T08:26:12;8.43;;;7.57;;
568;SDS011;269;48.884;9.192;2023-02-28T08:28:40;10.38;;;9.25;;
568;SDS011;269;48.884;9.192;2023-02-28T08:31:07;8.20;;;7.38;;
568;SDS011;269;48.884;9.192;2023-02-28T08:33:35;7.97;;;7.25;;
568;SDS011;269;48.884;9.192;2023-02-28T08:36:05;9.55;;;8.05;;
568;SDS011;269;48.884;9.192;2023-02-28T08:38:33;9.82;;;8.90;;
568;SDS011;269;48.884;9.192;2023-02-28T08:41:02;8.60;;;7.72;;
568;SDS011;269;48.884;9.192;2023-02-28T08:43:32;9.50;;;8.60;;
568;SDS011;269;48.884;9.192;2023-02-28T08:46:00;9.40;;;8.18;;
568;SDS011;269;48.884;9.192;2023-02-28T08:48:27;8.95;;;8.05;;
568;SDS011;269;48.884;9.192;2023-02-28T08:50:56;8.75;;;8.05;;
568;SDS011;269;48.884;9.192;2023-02-28T08:53:24;9.32;;;8.43;;
568;SDS011;269;48.884;9.192;2023-02-28T08:55:57;9.68;;;8.70;;
568;SDS011;269;48.884;9.192;2023-02-28T08:58:26;8.93;;;8.13;;
568;SDS011;269;48.884;9.192;2023-02-28T09:00:54;8.90;;;7.95;;
568;SDS011;269;48.884;9.192;2023-02-28T09:03:21;8.68;;;7.80;;
568;SDS011;269;48.884;9.192;2023-02-28T09:05:53;8.10;;;7.30;;
568;SDS011;269;48.884;9.192;2023-02-28T09:08:21;9.02;;;8.18;;
568;SDS011;269;48.884;9.192;2023-02-28T09:10:49;9.25;;;8.35;;
568;SDS011;269;48.884;9.192;2023-02-28T09:13:16;9.57;;;8.55;;
568;SDS011;269;48.884;9.192;2023-02-28T09:15:45;9.65;;;8.63;;
568;SDS011;269;48.884;9.192;2023-02-28T09:18:12;9.40;;;8.50;;
568;SDS011;269;48.884;9.192;2023-02-28T09:20:40;9.10;;;8.25;;
568;SDS011;269;48.884;9.192;2023-02-28T09:23:08;10.18;;;7.88;;
568;SDS011;269;48.884;9.192;2023-02-28T09:25:37;9.45;;;8.32;;
568;SDS011;269;48.884;9.192;2023-02-28T09:28:11;8.68;;;7.88;;
568;SDS011;269;48.884;9.192;2023-02-28T09:30:39;9.50;;;8.60;;
568;SDS011;269;48.884;9.192;2023-02-28T09:33:08;9.23;;;8.05;;
568;SDS011;269;48.884;9.192;2023-02-28T09:35:34;9.43;;;8.43;;
568;SDS011;269;48.884;9.192;2023-02-28T09:38:03;11.18;;;9.75;;
568;SDS011;269;48.884;9.192;2023-02-28T09:40:30;9.40;;;8.40;;
568;SDS011;269;48.884;9.192;2023-02-28T09:42:58;8.85;;;7.93;;
568;SDS011;269;48.884;9.192;2023-02-28T09:45:27;9.45;;;8.55;;
568;SDS011;269;48.884;9.192;2023-02-28T09:47:59;9.95;;;9.05;;
568;SDS011;269;48.884;9.192;2023-02-28T09:50:32;9.27;;;8.45;;
568;SDS011;269;48.884;9.192;2023-02-28T09:53:05;10.07;;;8.50;;
568;SDS011;269;48.884;9.192;2023-02-28T09:55:41;9.38;;;8.50;;
568;SDS011;269;48.884;9.192;2023-02-28T09:58:11;9.73;;;8.73;;
568;SDS011;269;48.884;9.192;2023-02-28T10:00:46;10.00;;;9.00;;
568;SDS011;269;48.884;9.192;2023-02-28T10:03:30;10.23;;;9.15;;
568;SDS011;269;48.884;9.192;2023-02-28T10:06:05;10.43;;;9.45;;
568;SDS011;269;48.884;9.192;2023-02-28T10:08:40;9.18;;;8.25;;
568;SDS011;269;48.884;9.192;2023-02-28T10:11:17;10.88;;;8.90;;
568;SDS011;269;48.884;9.192;2023-02-28T10:13:49;10.23;;;8.80;;
568;SDS011;269;48.884;9.192;2023-02-28T10:16:22;10.05;;;9.05;;
568;SDS011;269;48.884;9.192;2023-02-28T10:18:55;10.52;;;9.52;;
568;SDS011;269;48.884;9.192;2023-02-28T10:21:30;9.57;;;8.68;;
568;SDS011;269;48.884;9.192;2023-02-28T10:24:03;8.73;;;7.90;;
568;SDS011;269;48.884;9.192;2023-02-28T10:26:37;9.95;;;8.95;;
568;SDS011;269;48.884;9.192;2023-02-28T10:29:04;10.98;;;9.18;;
568;SDS011;269;48.884;9.192;2023-02-28T10:31:34;10.07;;;9.07;;
568;SDS011;269;48.884;9.192;2023-02-28T10:34:01;12.68;;;9.52;;
568;SDS011;269;48.884;9.192;2023-02-28T10:36:32;12.75;;;10.05;;
568;SDS011;269;48.884;9.192;2023-02-28T10:39:02;12.93;;;10.23;;
568;SDS011;269;48.884;9.192;2023-02-28T10:42:03;10.65;;;9.65;;
568;SDS011;269;48.884;9.192;2023-02-28T10:44:30;10.25;;;9.00;;
568;SDS011;269;48.884;9.192;2023-02-28T10:46:57;9.55;;;8.48;;
568;SDS011;269;48.884;9.192;2023-02-28T10:49:25;9.40;;;8.40;;
568;SDS011;269;48.884;9.192;2023-02-28T10:51:56;10.25;;;9.25;;
568;SDS011;269;48.884;9.192;2023-02-28T10:54:27;9.88;;;8.98;;
568;SDS011;269;48.884;9.192;2023-02-28T10:57:05;10.18;;;8.95;;
568;SDS011;269;48.884;9.192;2023-02-28T10:59:35;10.10;;;9.10;;
568;SDS011;269;48.884;9.192;2023-02-28T11:02:08;9.68;;;8.73;;
568;SDS011;269;48.884;9.192;2023-02-28T11:04:57;10.00;;;9.00;;
568;SDS011;269;48.884;9.192;2023-02-28T11:07:26;9.40;;;8.50;;
568;SDS011;269;48.884;9.192;2023-02-28T11:09:55;9.80;;;9.00;;
568;SDS011;269;48.884;9.192;2023-02-28T11:12:23;9.73;;;8.73;;
568;SDS011;269;48.884;9.192;2023-02-28T11:14:54;10.30;;;9.30;;
568;SDS011;269;48.884;9.192;2023-02-28T11:17:26;10.20;;;9.30;;
568;SDS011;269;48.884;9.192;2023-02-28T11:19:56;9.18;;;8.38;;
568;SDS011;269;48.884;9.192;2023-02-28T11:22:28;8.38;;;7.68;;
568;SDS011;269;48.884;9.192;2023-02-28T11:24:59;9.30;;;8.50;;
568;SDS011;269;48.884;9.192;2023-02-28T11:27:41;8.95;;;8.15;;
568;SDS011;269;48.884;9.192;2023-02-28T11:33:00;8.75;;;7.95;;
568;SDS011;269;48.884;9.192;2023-02-28T11:35:35;9.27;;;8.48;;
568;SDS011;269;48.884;9.192;2023-02-28T11:38:07;9.35;;;8.55;;
568;SDS011;269;48.884;9.192;2023-02-28T11:40:39;8.75;;;8.02;;
568;SDS011;269;48.884;9.192;2023-02-28T11:43:17;8.68;;;7.88;;
568;SDS011;269;48.884;9.192;2023-02-28T11:46:02;8.10;;;7.40;;
568;SDS011;269;48.884;9.192;2023-02-28T11:48:40;9.00;;;8.20;;
568;SDS011;269;48.884;9.192;2023-02-28T11:51:15;9.10;;;8.40;;
568;SDS011;269;48.884;9.192;2023-02-28T11:53:51;8.68;;;7.97;;
568;SDS011;269;48.884;9.192;2023-02-28T11:56:41;9.05;;;8.25;;
568;SDS011;269;48.884;9.192;2023-02-28T11:59:22;8.95;;;8.15;;
568;SDS011;269;48.884;9.192;2023-02-28T12:02:06;9.45;;;8.65;;
568;SDS011;269;48.884;9.192;2023-02-28T12:04:48;8.43;;;7.55;;
568;SDS011;269;48.884;9.192;2023-02-28T12:07:26;8.35;;;7.60;;
568;SDS011;269;48.884;9.192;2023-02-28T12:10:04;8.40;;;7.70;;
568;SDS011;269;48.884;9.192;2023-02-28T12:12:42;8.82;;;8.13;;
568;SDS011;269;48.884;9.192;2023-02-28T12:15:31;8.70;;;7.90;;
568;SDS011;269;48.884;9.192;2023-02-28T12:18:07;9.00;;;8.20;;
568;SDS011;269;48.884;9.192;2023-02-28T12:20:45;8.95;;;8.15;;
568;SDS011;269;48.884;9.192;2023-02-28T12:23:37;9.07;;;8.27;;
568;SDS011;269;48.884;9.192;2023-02-28T12:26:19;8.75;;;7.95;;
568;SDS011;269;48.884;9.192;2023-02-28T12:28:53;8.80;;;8.00;;
568;SDS011;269;48.884;9.192;2023-02-28T12:31:26;7.93;;;7.32;;
568;SDS011;269;48.884;9.192;2023-02-28T12:33:59;9.35;;;8.65;;
568;SDS011;269;48.884;9.192;2023-02-28T12:36:31;8.27;;;7.43;;
568;SDS011;269;48.884;9.192;2023-02-28T12:39:03;9.00;;;8.20;;
568;SDS011;269;48.884;9.192;2023-02-28T12:41:39;8.70;;;7.95;;
568;SDS011;269;48.884;9.192;2023-02-28T12:44:12;9.13;;;8.23;;
568;SDS011;269;48.884;9.192;2023-02-28T12:46:44;8.77;;;8.07;;
568;SDS011;269;48.884;9.192;2023-02-28T12:49:16;8.45;;;7.75;;
568;SDS011;269;48.884;9.192;2023-02-28T12:51:47;8.70;;;7.90;;
568;SDS011;269;48.884;9.192;2023-02-28T12:54:19;7.75;;;7.05;;
568;SDS011;269;48.884;9.192;2023-02-28T12:56:54;9.13;;;8.25;;
568;SDS011;269;48.884;9.192;2023-02-28T12:59:31;7.85;;;7.18;;
568;SDS011;269;48.884;9.192;2023-02-28T13:10:56;8.35;;;7.65;;
568;SDS011;269;48.884;9.192;2023-02-28T13:13:25;8.38;;;7.68;;
568;SDS011;269;48.884;9.192;2023-02-28T13:15:56;7.90;;;7.30;;
568;SDS011;269;48.884;9.192;2023-02-28T13:18:27;8.88;;;8.07;;
568;SDS011;269;48.884;9.192;2023-02-28T13:20:57;8.90;;;8.00;;
568;SDS011;269;48.884;9.192;2023-02-28T13:23:55;9.40;;;8.60;;
568;SDS011;269;48.884;9.192;2023-02-28T13:29:35;9.10;;;8.30;;
568;SDS011;269;48.884;9.192;2023-02-28T13:38:12;8.53;;;7.83;;
568;SDS011;269;48.884;9.192;2023-02-28T13:40:47;9.27;;;8.47;;
568;SDS011;269;48.884;9.192;2023-02-28T13:43:16;9.27;;;8.47;;
568;SDS011;269;48.884;9.192;2023-02-28T13:48:36;8.73;;;8.03;;
568;SDS011;269;48.884;9.192;2023-02-28T13:51:27;8.60;;;7.87;;
568;SDS011;269;48.884;9.192;2023-02-28T13:54:10;8.60;;;7.90;;
568;SDS011;269;48.884;9.192;2023-02-28T13:56:47;9.13;;;8.33;;
568;SDS011;269;48.884;9.192;2023-02-28T13:59:26;8.40;;;7.70;;
568;SDS011;269;48.884;9.192;2023-02-28T14:02:18;8.83;;;8.03;;
568;SDS011;269;48.884;9.192;2023-02-28T14:05:05;9.90;;;9.20;;
568;SDS011;269;48.884;9.192;2023-02-28T14:07:39;8.23;;;7.53;;
568;SDS011;269;48.884;9.192;2023-02-28T14:10:22;8.40;;;7.80;;
568;SDS011;269;48.884;9.192;2023-02-28T14:13:03;9.00;;;8.20;;
568;SDS011;269;48.884;9.192;2023-02-28T14:15:39;8.55;;;7.85;;
568;SDS011;269;48.884;9.192;2023-02-28T14:18:20;8.55;;;7.85;;
568;SDS011;269;48.884;9.192;2023-02-28T14:20:52;9.13;;;8.32;;
568;SDS011;269;48.884;9.192;2023-02-28T14:26:41;8.95;;;8.15;;
568;SDS011;269;48.884;9.192;2023-02-28T14:29:27;9.20;;;8.40;;
568;SDS011;269;48.884;9.192;2023-02-28T14:32:06;8.30;;;7.63;;
568;SDS011;269;48.884;9.192;2023-02-28T14:34:43;8.70;;;8.00;;
568;SDS011;269;48.884;9.192;2023-02-28T14:37:16;8.55;;;7.82;;
568;SDS011;269;48.884;9.192;2023-02-28T14:39:49;8.75;;;8.05;;
568;SDS011;269;48.884;9.192;2023-02-28T14:42:29;9.20;;;8.40;;
568;SDS011;269;48.884;9.192;2023-02-28T14:44:58;8.77;;;8.00;;
568;SDS011;269;48.884;9.192;2023-02-28T14:47:27;8.55;;;7.60;;
568;SDS011;269;48.884;9.192;2023-02-28T14:49:58;8.13;;;7.43;;
568;SDS011;269;48.884;9.192;2023-02-28T14:52:27;8.43;;;7.82;;
568;SDS011;269;48.884;9.192;2023-02-28T14:54:57;10.10;;;9.20;;
568;SDS011;269;48.884;9.192;2023-02-28T14:57:26;9.20;;;8.30;;
568;SDS011;269;48.884;9.192;2023-02-28T14:59:58;9.70;;;8.80;;
568;SDS011;269;48.884;9.192;2023-02-28T15:02:29;9.45;;;8.63;;
568;SDS011;269;48.884;9.192;2023-02-28T15:05:00;8.10;;;7.40;;
568;SDS011;269;48.884;9.192;2023-02-28T15:07:28;9.43;;;8.60;;
568;SDS011;269;48.884;9.192;2023-02-28T15:10:09;9.10;;;8.35;;
568;SDS011;269;48.884;9.192;2023-02-28T15:12:41;9.93;;;8.93;;
568;SDS011;269;48.884;9.192;2023-02-28T15:15:15;9.75;;;8.88;;
568;SDS011;269;48.884;9.192;2023-02-28T15:17:44;9.75;;;8.95;;
568;SDS011;269;48.884;9.192;2023-02-28T15:20:14;9.25;;;8.43;;
568;SDS011;269;48.884;9.192;2023-02-28T15:22:43;8.38;;;7.63;;
568;SDS011;269;48.884;9.192;2023-02-28T15:25:14;10.40;;;9.52;;
568;SDS011;269;48.884;9.192;2023-02-28T15:27:45;9.50;;;8.63;;
568;SDS011;269;48.884;9.192;2023-02-28T15:30:15;9.05;;;8.25;;
568;SDS011;269;48.884;9.192;2023-02-28T15:32:45;9.10;;;8.20;;
568;SDS011;269;48.884;9.192;2023-02-28T15:35:32;8.10;;;7.30;;
568;SDS011;269;48.884;9.192;2023-02-28T15:38:00;9.05;;;8.25;;
568;SDS011;269;48.884;9.192;2023-02-28T15:40:30;9.88;;;9.07;;
568;SDS011;269;48.884;9.192;2023-02-28T15:42:59;9.55;;;8.70;;
568;SDS011;269;48.884;9.192;2023-02-28T15:45:34;9.43;;;8.52;;
568;SDS011;269;48.884;9.192;2023-02-28T15:48:11;9.15;;;8.35;;
568;SDS011;269;48.884;9.192;2023-02-28T15:50:43;10.02;;;9.02;;
568;SDS011;269;48.884;9.192;2023-02-28T15:53:12;8.90;;;8.10;;
568;SDS011;269;48.884;9.192;2023-02-28T15:55:41;9.25;;;8.40;;
568;SDS011;269;48.884;9.192;2023-02-28T15:58:09;9.40;;;8.60;;
568;SDS011;269;48.884;9.192;2023-02-28T16:00:38;9.48;;;8.68;;
568;SDS011;269;48.884;9.192;2023-02-28T16:03:23;10.88;;;9.98;;
568;SDS011;269;48.884;9.192;2023-02-28T16:08:51;10.43;;;9.43;;
568;SDS011;269;48.884;9.192;2023-02-28T16:11:18;10.60;;;9.68;;
568;SDS011;269;48.884;9.192;2023-02-28T16:13:46;9.73;;;8.90;;
568;SDS011;269;48.884;9.192;2023-02-28T16:16:15;9.70;;;8.80;;
568;SDS011;269;48.884;9.192;2023-02-28T16:18:43;9.88;;;8.93;;
568;SDS011;269;48.884;9.192;2023-02-28T16:21:10;9.77;;;8.90;;
568;SDS011;269;48.884;9.192;2023-02-28T16:23:38;10.05;;;9.05;;
568;SDS011;269;48.884;9.192;2023-02-28T16:26:06;9.45;;;8.60;;
568;SDS011;269;48.884;9.192;2023-02-28T16:28:38;10.30;;;9.50;;
568;SDS011;269;48.884;9.192;2023-02-28T16:31:06;10.10;;;9.20;;
568;SDS011;269;48.884;9.192;2023-02-28T16:33:36;10.70;;;9.60;;
568;SDS011;269;48.884;9.192;2023-02-28T16:36:03;10.55;;;9.75;;
568;SDS011;269;48.884;9.192;2023-02-28T16:38:32;10.18;;;9.20;;
568;SDS011;269;48.884;9.192;2023-02-28T16:41:00;10.85;;;9.75;;
568;SDS011;269;48.884;9.192;2023-02-28T16:43:28;10.82;;;9.82;;